Grand Chute, Wisconsin
Current Conditions -  °F | °C
As of 10:45 AM on Friday 28 Nov 2014 (Local Time) from KATW Reporting Station
Overcast Overcast  
Wind Chill:   Ceiling: 5000
Heat Index: 18°   Visibility: 7mi
Dew Point: 12°   Wind: 12mph
Humidity: 79%   Direction: 150°SSE
Pressure: 30.11"   Gusts: NA
Location:  44.2667°N, 88.4344°W
Report Text: KATW 281645Z 15010KT 7SM SCT035 OVC050 M08/M11 A3011
Loading
Personal Weather Stations






























Interactive Weather Map New forecast layout! Learn more

10-Day Weather Forecast

Advertisements
Track Severe Weather on mobile